createdAt,value
2023-05-25T00:01:24.474Z,100279.20
2023-05-25T00:03:53.049Z,100275.67
2023-05-25T00:06:20.504Z,100276.83
2023-05-25T00:08:48.649Z,100277.46
2023-05-25T00:11:19.462Z,100278.85
2023-05-25T00:13:46.760Z,100281.33
2023-05-25T00:16:14.033Z,100282.45
2023-05-25T00:18:41.285Z,100284.76
2023-05-25T00:21:08.596Z,100286.93
2023-05-25T00:23:35.912Z,100287.38
2023-05-25T00:26:03.451Z,100287.58
2023-05-25T00:28:30.872Z,100287.62
2023-05-25T00:30:58.913Z,100285.48
2023-05-25T00:33:26.255Z,100289.73
2023-05-25T00:35:54.098Z,100284.92
2023-05-25T00:38:21.854Z,100284.80
2023-05-25T00:40:49.336Z,100283.81
2023-05-25T00:43:16.733Z,100279.88
2023-05-25T00:45:44.174Z,100279.79
2023-05-25T00:48:11.551Z,100279.25
2023-05-25T00:50:42.615Z,100275.21
2023-05-25T00:53:10.607Z,100273.77
2023-05-25T00:56:02.456Z,100277.98
2023-05-25T00:58:31.424Z,100274.60
2023-05-25T01:00:58.784Z,100277.69
2023-05-25T01:03:28.427Z,100276.45
2023-05-25T01:05:56.109Z,100273.55
2023-05-25T01:08:23.473Z,100275.84
2023-05-25T01:10:52.823Z,100274.84
2023-05-25T01:13:21.045Z,100282.23
2023-05-25T01:15:48.452Z,100282.04
2023-05-25T01:18:15.924Z,100284.70
2023-05-25T01:21:13.290Z,100283.05
2023-05-25T01:23:44.034Z,100280.15
2023-05-25T01:26:13.605Z,100280.00
2023-05-25T01:28:42.975Z,100277.64
2023-05-25T01:31:10.568Z,100279.04
2023-05-25T01:33:37.871Z,100283.39
2023-05-25T01:36:05.421Z,100281.42
2023-05-25T01:38:32.706Z,100285.55
2023-05-25T01:42:30.552Z,100286.05
2023-05-25T01:44:58.949Z,100288.45
2023-05-25T01:47:48.293Z,100287.87
2023-05-25T01:50:20.603Z,100289.38
2023-05-25T01:52:58.332Z,100288.32
2023-05-25T01:55:26.975Z,100288.98
2023-05-25T01:57:58.093Z,100289.44
2023-05-25T02:00:26.503Z,100293.29
2023-05-25T02:02:53.934Z,100294.20
2023-05-25T02:05:21.495Z,100296.05
2023-05-25T02:07:48.794Z,100299.86
2023-05-25T02:10:16.125Z,100301.61
2023-05-25T02:12:43.370Z,100304.88
2023-05-25T02:15:11.570Z,100305.27
2023-05-25T02:17:38.812Z,100301.48
2023-05-25T02:20:07.016Z,100301.80
2023-05-25T02:22:34.426Z,100303.14
2023-05-25T02:25:01.660Z,100302.59
2023-05-25T02:27:30.144Z,100302.39
2023-05-25T02:29:57.373Z,100301.44
2023-05-25T02:32:25.844Z,100300.67
2023-05-25T02:34:53.110Z,100298.20
2023-05-25T02:37:21.164Z,100303.55
2023-05-25T02:39:48.385Z,100301.87
2023-05-25T02:42:15.665Z,100307.25
2023-05-25T02:44:48.212Z,100311.34
2023-05-25T02:47:16.130Z,100313.20
2023-05-25T02:49:44.235Z,100312.06
2023-05-25T02:52:11.507Z,100311.63
2023-05-25T02:54:39.268Z,100312.40
2023-05-25T02:57:08.408Z,100311.09
2023-05-25T02:59:35.755Z,100312.64
2023-05-25T03:02:03.706Z,100317.08
2023-05-25T03:04:34.398Z,100311.66
2023-05-25T03:07:02.220Z,100312.89
2023-05-25T03:09:29.887Z,100308.40
2023-05-25T03:11:57.685Z,100309.29
2023-05-25T03:14:25.137Z,100307.75
2023-05-25T03:16:59.876Z,100310.86
2023-05-25T03:19:27.408Z,100312.47
2023-05-25T03:21:54.753Z,100315.84
2023-05-25T03:24:22.134Z,100310.98
2023-05-25T03:26:49.399Z,100314.23
2023-05-25T03:29:16.964Z,100312.86
2023-05-25T03:31:44.361Z,100316.63
2023-05-25T03:34:12.177Z,100314.29
2023-05-25T03:36:39.673Z,100314.37
2023-05-25T03:39:07.299Z,100318.19
2023-05-25T03:41:34.575Z,100317.38
2023-05-25T03:44:01.961Z,100311.75
2023-05-25T03:46:29.481Z,100308.77
2023-05-25T03:48:57.609Z,100308.31
2023-05-25T03:51:24.929Z,100307.25
2023-05-25T03:53:52.307Z,100306.88
2023-05-25T03:56:19.598Z,100313.61
2023-05-25T03:58:46.977Z,100307.95
2023-05-25T04:01:14.777Z,100309.52
2023-05-25T04:03:42.153Z,100307.80
2023-05-25T04:06:09.840Z,100311.22
2023-05-25T04:08:37.114Z,100315.10
2023-05-25T04:11:05.566Z,100321.17
2023-05-25T04:13:35.913Z,100319.98
2023-05-25T04:16:03.583Z,100324.25
2023-05-25T04:18:33.871Z,100327.42
2023-05-25T04:21:01.363Z,100329.95
2023-05-25T04:23:28.924Z,100329.10
2023-05-25T04:25:56.680Z,100327.31
2023-05-25T04:28:24.069Z,100322.96
2023-05-25T04:30:57.215Z,100325.37
2023-05-25T04:33:48.174Z,100326.92
2023-05-25T04:36:38.682Z,100320.36
2023-05-25T04:39:07.588Z,100320.65
2023-05-25T04:41:39.347Z,100317.08
2023-05-25T04:44:10.673Z,100317.11
2023-05-25T04:46:48.517Z,100314.19
2023-05-25T04:49:21.493Z,100311.33
2023-05-25T04:51:48.961Z,100313.64
2023-05-25T04:54:16.598Z,100313.95
2023-05-25T04:56:44.135Z,100313.02
2023-05-25T04:59:11.597Z,100312.35
2023-05-25T05:01:42.159Z,100315.61
2023-05-25T05:04:12.173Z,100309.73
2023-05-25T05:06:39.621Z,100307.73
2023-05-25T05:09:07.892Z,100308.10
2023-05-25T05:11:35.127Z,100308.67
2023-05-25T05:14:04.652Z,100307.77
2023-05-25T05:16:35.293Z,100307.60
2023-05-25T05:19:02.958Z,100308.73
2023-05-25T05:21:30.480Z,100309.30
2023-05-25T05:23:57.856Z,100304.25
2023-05-25T05:26:25.221Z,100305.23
2023-05-25T05:28:53.059Z,100307.90
2023-05-25T05:31:21.500Z,100313.52
2023-05-25T05:33:48.816Z,100312.64
2023-05-25T05:36:16.980Z,100310.09
2023-05-25T05:38:46.958Z,100316.89
2023-05-25T05:41:14.558Z,100318.42
2023-05-25T05:43:43.876Z,100317.57
2023-05-25T05:46:11.218Z,100319.02
2023-05-25T05:48:40.357Z,100321.08
2023-05-25T05:51:07.791Z,100321.31
2023-05-25T05:53:37.856Z,100319.48
2023-05-25T05:56:05.931Z,100324.11
2023-05-25T05:58:33.869Z,100322.77
2023-05-25T06:01:02.023Z,100317.23
2023-05-25T06:03:29.356Z,100320.62
2023-05-25T06:05:56.624Z,100321.28
2023-05-25T06:08:24.235Z,100317.47
2023-05-25T06:10:51.729Z,100318.33
2023-05-25T06:13:19.006Z,100314.14
2023-05-25T06:15:46.593Z,100313.32
2023-05-25T06:18:17.736Z,100315.61
2023-05-25T06:20:45.102Z,100317.84
2023-05-25T06:23:14.098Z,100317.04
2023-05-25T06:25:41.691Z,100320.55
2023-05-25T06:28:09.166Z,100322.75
2023-05-25T06:30:36.423Z,100317.83
2023-05-25T06:33:04.086Z,100314.80
2023-05-25T06:35:31.446Z,100316.91
2023-05-25T06:37:58.709Z,100320.27
2023-05-25T06:40:26.073Z,100322.73
2023-05-25T06:42:53.392Z,100320.73
2023-05-25T06:45:38.004Z,100321.95
2023-05-25T06:48:05.724Z,100317.98
2023-05-25T06:50:33.261Z,100319.83
2023-05-25T06:53:00.737Z,100315.06
2023-05-25T06:55:28.102Z,100312.91
2023-05-25T06:57:56.174Z,100311.89
2023-05-25T07:00:23.528Z,100310.73
2023-05-25T07:02:50.989Z,100314.23
2023-05-25T07:05:18.385Z,100315.28
2023-05-25T07:07:45.758Z,100321.27
2023-05-25T07:10:13.036Z,100321.03
2023-05-25T07:12:40.312Z,100313.77
2023-05-25T07:15:08.237Z,100319.65
2023-05-25T07:17:36.723Z,100311.89
2023-05-25T07:20:05.879Z,100320.93
2023-05-25T07:22:33.180Z,100315.25
2023-05-25T07:25:00.458Z,100317.52
2023-05-25T07:27:27.912Z,100321.84
2023-05-25T07:29:55.165Z,100319.92
2023-05-25T07:32:22.484Z,100318.45
2023-05-25T07:34:50.185Z,100317.75
2023-05-25T07:37:17.427Z,100321.83
2023-05-25T07:39:44.736Z,100324.31
2023-05-25T07:42:12.022Z,100317.56
2023-05-25T07:44:39.462Z,100316.64
2023-05-25T07:47:07.303Z,100317.29
2023-05-25T07:49:34.982Z,100314.65
2023-05-25T07:52:04.563Z,100317.41
2023-05-25T07:54:32.392Z,100317.92
2023-05-25T07:56:59.675Z,100318.20
2023-05-25T07:59:26.911Z,100317.75
2023-05-25T08:01:54.262Z,100319.09
2023-05-25T08:04:21.587Z,100315.88
2023-05-25T08:06:48.894Z,100314.16
2023-05-25T08:09:16.145Z,100310.60
2023-05-25T08:11:45.520Z,100312.32
2023-05-25T08:14:13.056Z,100307.69
2023-05-25T08:16:40.661Z,100301.74
2023-05-25T08:19:07.878Z,100300.09
2023-05-25T08:21:35.256Z,100304.99
2023-05-25T08:24:04.253Z,100299.10
2023-05-25T08:26:45.345Z,100301.59
2023-05-25T08:29:19.405Z,100296.25
2023-05-25T08:31:49.647Z,100290.98
2023-05-25T08:34:18.216Z,100296.75
2023-05-25T08:36:46.122Z,100293.92
2023-05-25T08:39:13.518Z,100293.09
2023-05-25T08:41:44.481Z,100285.69
2023-05-25T08:44:11.769Z,100288.23
2023-05-25T08:46:39.036Z,100293.69
2023-05-25T08:49:13.657Z,100294.70
2023-05-25T08:51:54.199Z,100291.08
2023-05-25T08:54:39.547Z,100291.90
2023-05-25T08:57:20.883Z,100285.64
2023-05-25T08:59:52.390Z,100287.56
2023-05-25T09:02:52.322Z,100289.70
2023-05-25T09:05:19.830Z,100289.98
2023-05-25T09:07:47.195Z,100283.04
2023-05-25T09:10:14.520Z,100291.84
2023-05-25T09:12:41.834Z,100294.04
2023-05-25T09:15:12.510Z,100284.92
2023-05-25T09:17:41.402Z,100288.39
2023-05-25T09:20:10.882Z,100289.12
2023-05-25T09:22:38.221Z,100287.52
2023-05-25T09:25:06.806Z,100287.54
2023-05-25T09:27:35.503Z,100286.94
2023-05-25T09:30:03.485Z,100285.17
2023-05-25T09:32:30.938Z,100283.42
2023-05-25T09:35:14.581Z,100278.38
2023-05-25T09:37:42.247Z,100274.70
2023-05-25T09:40:10.950Z,100270.17
2023-05-25T09:42:38.424Z,100259.94
2023-05-25T09:45:06.393Z,100259.17
2023-05-25T09:47:36.070Z,100254.34
2023-05-25T09:50:03.901Z,100259.39
2023-05-25T09:52:31.509Z,100254.71
2023-05-25T09:54:58.741Z,100255.31
2023-05-25T09:57:26.132Z,100253.26
2023-05-25T09:59:53.537Z,100246.60
2023-05-25T10:02:20.779Z,100241.31
2023-05-25T10:04:48.648Z,100240.59
2023-05-25T10:07:16.274Z,100234.20
2023-05-25T10:09:43.532Z,100234.41
2023-05-25T10:12:10.733Z,100228.36
2023-05-25T10:14:38.346Z,100229.30
2023-05-25T10:17:09.120Z,100219.92
2023-05-25T10:19:41.408Z,100225.48
2023-05-25T10:22:14.203Z,100222.11
2023-05-25T10:24:56.477Z,100216.94
2023-05-25T10:30:12.424Z,100209.11
2023-05-25T10:32:39.858Z,100210.91
2023-05-25T10:35:07.707Z,100209.23
2023-05-25T10:37:35.817Z,100211.69
2023-05-25T10:40:03.912Z,100215.75
2023-05-25T10:42:31.245Z,100214.29
2023-05-25T10:44:58.783Z,100212.98
2023-05-25T10:47:26.135Z,100209.34
2023-05-25T10:49:54.748Z,100205.79
2023-05-25T10:52:22.095Z,100205.80
2023-05-25T10:54:49.356Z,100206.42
2023-05-25T10:57:23.752Z,100206.66
2023-05-25T10:59:52.030Z,100214.30
2023-05-25T11:02:25.174Z,100213.04
2023-05-25T11:05:12.382Z,100210.03
2023-05-25T11:08:01.361Z,100211.08
2023-05-25T11:10:49.463Z,100222.33
2023-05-25T11:13:23.804Z,100235.59
2023-05-25T11:16:18.820Z,100226.58
2023-05-25T11:19:01.956Z,100232.80
2023-05-25T11:21:30.486Z,100243.67
2023-05-25T11:24:04.463Z,100247.85
2023-05-25T11:26:35.071Z,100248.18
2023-05-25T11:29:12.187Z,100247.74
2023-05-25T11:31:43.431Z,100249.92
2023-05-25T11:34:11.960Z,100248.27
2023-05-25T11:36:39.664Z,100242.10
2023-05-25T11:39:14.201Z,100247.20
2023-05-25T11:41:48.360Z,100246.36
2023-05-25T11:44:15.603Z,100246.41
2023-05-25T11:46:43.937Z,100251.84
2023-05-25T11:49:11.218Z,100253.32
2023-05-25T11:51:38.761Z,100255.52
2023-05-25T11:54:06.283Z,100261.05
2023-05-25T11:56:35.939Z,100257.54
2023-05-25T11:59:03.504Z,100254.18
2023-05-25T12:01:34.370Z,100251.17
2023-05-25T12:04:05.035Z,100246.98
2023-05-25T12:06:36.998Z,100248.34
2023-05-25T12:09:10.190Z,100240.46
2023-05-25T12:11:45.296Z,100244.47
2023-05-25T12:14:12.563Z,100235.65
2023-05-25T12:16:41.041Z,100232.89
2023-05-25T12:19:08.604Z,100228.84
2023-05-25T12:21:39.044Z,100227.01
2023-05-25T12:24:07.007Z,100230.74
2023-05-25T12:26:34.448Z,100228.84
2023-05-25T12:29:03.618Z,100223.21
2023-05-25T12:31:35.737Z,100223.21
2023-05-25T12:34:06.040Z,100219.67
2023-05-25T12:36:40.483Z,100222.63
2023-05-25T12:39:08.049Z,100220.52
2023-05-25T12:41:53.353Z,100221.31
2023-05-25T12:44:26.896Z,100218.33
2023-05-25T12:46:55.604Z,100217.02
2023-05-25T12:49:27.661Z,100216.27
2023-05-25T12:51:55.265Z,100211.36
2023-05-25T12:54:44.808Z,100203.50
2023-05-25T12:57:16.147Z,100198.44
2023-05-25T12:59:44.992Z,100198.92
2023-05-25T13:02:13.004Z,100200.45
2023-05-25T13:04:41.171Z,100201.24
2023-05-25T13:07:08.728Z,100202.80
2023-05-25T13:09:36.568Z,100202.58
2023-05-25T13:12:04.516Z,100198.33
2023-05-25T13:14:31.744Z,100201.00
2023-05-25T13:16:59.121Z,100200.48
2023-05-25T13:19:26.345Z,100199.74
2023-05-25T13:21:55.823Z,100200.83
2023-05-25T13:24:23.244Z,100203.92
2023-05-25T13:26:51.128Z,100203.90
2023-05-25T13:29:18.594Z,100203.98
2023-05-25T13:31:46.750Z,100207.27
2023-05-25T13:34:14.190Z,100206.13
2023-05-25T13:36:41.498Z,100207.07
2023-05-25T13:39:13.249Z,100199.86
2023-05-25T13:41:41.171Z,100200.27
2023-05-25T13:44:08.566Z,100200.60
2023-05-25T13:46:37.672Z,100198.59
2023-05-25T13:49:05.175Z,100194.53
2023-05-25T13:51:35.457Z,100191.13
2023-05-25T13:54:03.182Z,100190.52
2023-05-25T13:56:30.452Z,100198.58
2023-05-25T14:00:34.311Z,100195.02
2023-05-25T14:03:01.949Z,100195.80
2023-05-25T14:05:30.319Z,100200.21
2023-05-25T14:08:00.786Z,100200.79
2023-05-25T14:10:28.346Z,100205.36
2023-05-25T14:12:55.670Z,100202.83
2023-05-25T14:15:23.046Z,100202.44
2023-05-25T14:17:50.558Z,100203.81
2023-05-25T14:20:25.329Z,100204.59
2023-05-25T14:22:52.858Z,100196.16
2023-05-25T14:25:20.153Z,100198.02
2023-05-25T14:27:47.341Z,100197.05
2023-05-25T14:30:14.885Z,100204.86
2023-05-25T14:32:42.843Z,100203.30
2023-05-25T14:35:10.837Z,100202.41
2023-05-25T14:37:38.059Z,100194.55
2023-05-25T14:40:06.142Z,100200.95
2023-05-25T14:42:33.369Z,100200.55
2023-05-25T14:45:00.881Z,100197.12
2023-05-25T14:47:28.237Z,100201.60
2023-05-25T14:49:55.757Z,100196.60
2023-05-25T14:52:23.034Z,100197.19
2023-05-25T14:54:50.416Z,100193.45
2023-05-25T14:57:17.766Z,100196.20
2023-05-25T14:59:45.048Z,100192.26
2023-05-25T15:02:12.374Z,100194.62
2023-05-25T15:04:39.648Z,100204.00
2023-05-25T15:07:06.984Z,100208.43
2023-05-25T15:09:34.265Z,100210.49
2023-05-25T15:12:02.071Z,100213.90
2023-05-25T15:14:29.358Z,100219.17
2023-05-25T15:16:57.166Z,100220.80
2023-05-25T15:19:24.356Z,100223.12
2023-05-25T15:21:51.667Z,100226.71
2023-05-25T15:24:18.918Z,100227.01
2023-05-25T15:26:46.540Z,100225.44
2023-05-25T15:29:13.837Z,100226.13
2023-05-25T15:31:41.432Z,100229.98
2023-05-25T15:34:11.222Z,100228.78
2023-05-25T15:36:38.454Z,100227.08
2023-05-25T15:39:08.905Z,100224.50
2023-05-25T15:41:36.381Z,100221.56
2023-05-25T15:44:08.120Z,100221.53
2023-05-25T15:46:36.174Z,100222.15
2023-05-25T15:49:10.699Z,100223.81
2023-05-25T15:51:39.829Z,100224.23
2023-05-25T15:54:08.050Z,100226.21
2023-05-25T15:56:35.958Z,100222.86
2023-05-25T15:59:03.685Z,100226.19
2023-05-25T16:01:34.240Z,100225.13
2023-05-25T16:04:01.671Z,100228.77
2023-05-25T16:06:29.284Z,100229.27
2023-05-25T16:08:58.641Z,100228.96
2023-05-25T16:11:28.013Z,100227.38
2023-05-25T16:13:55.448Z,100227.09
2023-05-25T16:16:24.316Z,100229.80
2023-05-25T16:18:51.820Z,100226.55
2023-05-25T16:21:19.057Z,100228.17
2023-05-25T16:23:46.313Z,100226.06
2023-05-25T16:26:13.512Z,100223.83
2023-05-25T16:28:40.936Z,100221.41
2023-05-25T16:31:08.223Z,100220.12
2023-05-25T16:33:35.530Z,100213.64
2023-05-25T16:36:02.901Z,100209.52
2023-05-25T16:38:30.455Z,100209.60
2023-05-25T16:40:57.729Z,100213.48
2023-05-25T16:43:25.222Z,100213.96
2023-05-25T16:45:52.661Z,100210.05
2023-05-25T16:48:22.434Z,100203.42
2023-05-25T16:50:50.501Z,100203.98
2023-05-25T16:53:17.745Z,100206.61
2023-05-25T16:55:45.137Z,100204.06
2023-05-25T16:58:12.504Z,100203.27
2023-05-25T17:00:40.185Z,100206.08
2023-05-25T17:03:07.501Z,100202.49
2023-05-25T17:05:34.799Z,100209.31
2023-05-25T17:08:02.175Z,100207.22
2023-05-25T17:10:29.367Z,100213.67
2023-05-25T17:12:56.725Z,100211.33
2023-05-25T17:15:24.044Z,100209.52
2023-05-25T17:17:51.472Z,100219.79
2023-05-25T17:20:18.732Z,100225.98
2023-05-25T17:22:46.640Z,100230.88
2023-05-25T17:25:13.866Z,100229.51
2023-05-25T17:27:41.134Z,100230.69
2023-05-25T17:30:09.255Z,100234.89
2023-05-25T17:32:36.595Z,100231.27
2023-05-25T17:35:04.216Z,100228.17
2023-05-25T17:37:32.293Z,100231.01
2023-05-25T17:39:59.535Z,100234.04
2023-05-25T17:42:26.812Z,100233.55
2023-05-25T17:44:54.049Z,100233.05
2023-05-25T17:47:21.303Z,100235.52
2023-05-25T17:49:48.526Z,100235.27
2023-05-25T17:52:15.879Z,100236.42
2023-05-25T17:54:43.086Z,100240.13
2023-05-25T17:57:10.307Z,100244.23
2023-05-25T17:59:37.598Z,100247.66
2023-05-25T18:02:05.151Z,100247.42
2023-05-25T18:04:32.404Z,100245.23
2023-05-25T18:06:59.664Z,100243.20
2023-05-25T18:09:26.881Z,100245.05
2023-05-25T18:11:55.360Z,100248.06
2023-05-25T18:14:22.693Z,100247.95
2023-05-25T18:16:50.058Z,100251.20
2023-05-25T18:19:20.187Z,100253.20
2023-05-25T18:21:47.552Z,100257.80
2023-05-25T18:24:14.783Z,100258.27
2023-05-25T18:26:42.317Z,100258.91
2023-05-25T18:29:09.741Z,100261.82
2023-05-25T18:31:37.081Z,100262.89
2023-05-25T18:34:06.776Z,100264.77
2023-05-25T18:36:34.091Z,100266.72
2023-05-25T18:39:01.290Z,100268.06
2023-05-25T18:41:28.559Z,100267.80
2023-05-25T18:43:55.863Z,100265.16
2023-05-25T18:46:24.486Z,100264.06
2023-05-25T18:48:51.857Z,100264.86
2023-05-25T18:51:22.999Z,100261.38
2023-05-25T18:53:50.245Z,100263.85
2023-05-25T18:56:17.445Z,100265.83
2023-05-25T18:58:44.972Z,100266.58
2023-05-25T19:01:12.234Z,100270.80
2023-05-25T19:03:39.522Z,100271.46
2023-05-25T19:06:07.150Z,100274.08
2023-05-25T19:08:34.372Z,100275.92
2023-05-25T19:11:01.589Z,100279.16
2023-05-25T19:13:29.335Z,100282.36
2023-05-25T19:15:56.794Z,100280.07
2023-05-25T19:18:24.083Z,100277.98
2023-05-25T19:20:51.472Z,100276.27
2023-05-25T19:23:19.494Z,100275.81
2023-05-25T19:25:47.072Z,100272.25
2023-05-25T19:28:14.652Z,100267.63
2023-05-25T19:30:41.915Z,100267.30
2023-05-25T19:33:09.324Z,100269.16
2023-05-25T19:35:37.207Z,100264.64
2023-05-25T19:38:04.557Z,100266.64
2023-05-25T19:40:32.203Z,100265.56
2023-05-25T19:42:59.412Z,100262.29
2023-05-25T19:45:26.697Z,100260.23
2023-05-25T19:47:54.533Z,100267.20
2023-05-25T19:50:21.835Z,100271.41
2023-05-25T19:52:49.056Z,100272.91
2023-05-25T19:55:16.243Z,100272.31
2023-05-25T19:57:43.505Z,100272.46
2023-05-25T20:00:24.944Z,100271.30
2023-05-25T20:02:53.982Z,100275.70
2023-05-25T20:05:21.338Z,100275.76
2023-05-25T20:07:50.765Z,100276.56
2023-05-25T20:10:18.133Z,100278.73
2023-05-25T20:12:45.441Z,100281.89
2023-05-25T20:15:12.764Z,100279.58
2023-05-25T20:17:40.128Z,100281.13
2023-05-25T20:20:07.939Z,100284.83
2023-05-25T20:22:35.456Z,100286.71
2023-05-25T20:25:02.696Z,100284.03
2023-05-25T20:27:29.941Z,100286.23
2023-05-25T20:29:57.468Z,100289.08
2023-05-25T20:32:24.820Z,100286.80
2023-05-25T20:34:52.093Z,100284.14
2023-05-25T20:37:19.381Z,100283.97
2023-05-25T20:39:46.644Z,100285.64
2023-05-25T20:42:14.128Z,100283.89
2023-05-25T20:44:41.385Z,100284.25
2023-05-25T20:47:08.664Z,100280.61
2023-05-25T20:49:36.001Z,100280.38
2023-05-25T20:52:03.417Z,100280.95
2023-05-25T20:54:30.763Z,100278.02
2023-05-25T20:56:58.074Z,100277.02
2023-05-25T20:59:25.441Z,100270.82
2023-05-25T21:01:52.754Z,100269.73
2023-05-25T21:04:20.021Z,100270.52
2023-05-25T21:06:47.270Z,100265.80
2023-05-25T21:09:14.573Z,100270.50
2023-05-25T21:11:41.800Z,100271.42
2023-05-25T21:14:09.045Z,100275.02
2023-05-25T21:16:36.391Z,100273.46
2023-05-25T21:19:03.665Z,100270.21
2023-05-25T21:21:33.916Z,100269.27
2023-05-25T21:24:01.628Z,100268.40
2023-05-25T21:26:29.820Z,100269.98
2023-05-25T21:28:57.485Z,100265.19
2023-05-25T21:31:25.012Z,100262.61
2023-05-25T21:33:53.222Z,100266.59
2023-05-25T21:36:20.810Z,100267.93
2023-05-25T21:38:48.110Z,100267.92
2023-05-25T21:41:15.497Z,100266.10
2023-05-25T21:43:42.745Z,100259.52
2023-05-25T21:46:10.069Z,100254.45
2023-05-25T21:48:37.521Z,100253.77
2023-05-25T21:51:05.536Z,100253.14
2023-05-25T21:53:32.955Z,100253.54
2023-05-25T21:56:00.240Z,100261.42
2023-05-25T21:58:27.531Z,100260.69
2023-05-25T22:00:54.742Z,100259.33
2023-05-25T22:03:22.228Z,100262.16
2023-05-25T22:05:49.457Z,100265.30
2023-05-25T22:08:16.722Z,100263.66
2023-05-25T22:10:43.932Z,100258.86
2023-05-25T22:13:11.148Z,100252.23
2023-05-25T22:15:38.456Z,100254.31
2023-05-25T22:18:06.329Z,100251.64
2023-05-25T22:20:33.726Z,100256.14
2023-05-25T22:23:01.061Z,100251.58
2023-05-25T22:25:28.299Z,100250.22
2023-05-25T22:27:56.042Z,100250.37
2023-05-25T22:30:23.351Z,100250.96
2023-05-25T22:32:50.694Z,100251.33
2023-05-25T22:35:17.919Z,100250.85
2023-05-25T22:37:45.270Z,100242.09
2023-05-25T22:40:12.932Z,100244.98
2023-05-25T22:42:40.535Z,100251.21
2023-05-25T22:45:08.376Z,100245.20
2023-05-25T22:47:35.916Z,100245.81
2023-05-25T22:50:03.194Z,100250.31
2023-05-25T22:52:30.466Z,100249.11
2023-05-25T22:54:57.721Z,100249.59
2023-05-25T22:57:25.059Z,100245.66
2023-05-25T22:59:52.308Z,100246.13
2023-05-25T23:02:19.551Z,100241.34
2023-05-25T23:04:46.948Z,100241.30
2023-05-25T23:07:14.233Z,100243.52
2023-05-25T23:09:41.438Z,100246.54
2023-05-25T23:12:08.719Z,100244.59
2023-05-25T23:14:36.485Z,100241.42
2023-05-25T23:17:03.804Z,100241.34
2023-05-25T23:19:31.034Z,100237.29
2023-05-25T23:21:58.714Z,100239.94
2023-05-25T23:24:25.934Z,100234.54
2023-05-25T23:26:53.264Z,100239.11
2023-05-25T23:29:20.473Z,100236.40
2023-05-25T23:31:47.733Z,100239.36
2023-05-25T23:34:15.601Z,100238.84
2023-05-25T23:36:42.894Z,100241.70
2023-05-25T23:39:10.262Z,100241.01
2023-05-25T23:41:37.566Z,100237.41
2023-05-25T23:44:04.844Z,100237.46
2023-05-25T23:46:32.180Z,100239.48
2023-05-25T23:48:59.577Z,100242.17
2023-05-25T23:51:30.246Z,100244.81
2023-05-25T23:53:59.170Z,100243.14
2023-05-25T23:56:28.396Z,100239.63
2023-05-25T23:58:57.396Z,100234.20
